createdAt,value
2023-03-06T00:00:53.937Z,97.53
2023-03-06T00:03:21.391Z,97.63
2023-03-06T00:05:48.231Z,97.61
2023-03-06T00:08:15.086Z,97.38
2023-03-06T00:10:42.038Z,97.65
2023-03-06T00:13:14.691Z,97.53
2023-03-06T00:15:41.748Z,97.57
2023-03-06T00:18:08.519Z,97.95
2023-03-06T00:20:35.881Z,98.01
2023-03-06T00:23:05.685Z,98.14
2023-03-06T00:25:32.391Z,97.76
2023-03-06T00:27:59.048Z,97.77
2023-03-06T00:30:29.494Z,97.38
2023-03-06T00:32:56.166Z,97.61
2023-03-06T00:35:26.120Z,97.37
2023-03-06T00:37:52.843Z,97.51
2023-03-06T00:40:25.781Z,97.13
2023-03-06T00:42:52.958Z,97.27
2023-03-06T00:45:19.692Z,97.62
2023-03-06T00:47:46.324Z,97.71
2023-03-06T00:50:13.536Z,96.88
2023-03-06T00:52:43.210Z,97.15
2023-03-06T00:55:11.135Z,97.13
2023-03-06T00:57:38.046Z,97.19
2023-03-06T01:00:08.890Z,97.29
2023-03-06T01:02:35.655Z,97.37
2023-03-06T01:05:02.672Z,97.93
2023-03-06T01:07:29.894Z,97.77
2023-03-06T01:09:56.549Z,98.16
2023-03-06T01:12:23.694Z,98.28
2023-03-06T01:14:50.585Z,98.46
2023-03-06T01:17:17.653Z,98.26
2023-03-06T01:19:48.336Z,98.20
2023-03-06T01:22:14.965Z,98.29
2023-03-06T01:24:47.833Z,98.22
2023-03-06T01:27:14.644Z,98.64
2023-03-06T01:29:41.319Z,98.52
2023-03-06T01:32:08.131Z,98.61
2023-03-06T01:34:34.797Z,98.50
2023-03-06T01:37:10.281Z,98.81
2023-03-06T01:39:36.903Z,98.88
2023-03-06T01:42:10.276Z,98.74
2023-03-06T01:44:36.983Z,98.83
2023-03-06T01:47:03.801Z,99.12
2023-03-06T01:49:39.834Z,99.10
2023-03-06T01:52:10.308Z,98.98
2023-03-06T01:55:11.814Z,99.10
2023-03-06T01:57:48.381Z,98.88
2023-03-06T02:00:19.032Z,99.07
2023-03-06T02:02:50.540Z,99.42
2023-03-06T02:05:17.464Z,99.05
2023-03-06T02:07:46.066Z,99.37
2023-03-06T02:10:14.742Z,99.35
2023-03-06T02:12:46.507Z,99.37
2023-03-06T02:15:17.001Z,99.43
2023-03-06T02:17:45.457Z,99.58
2023-03-06T02:20:24.302Z,99.70
2023-03-06T02:23:05.395Z,99.73
2023-03-06T02:25:41.343Z,99.93
2023-03-06T02:28:13.118Z,99.67
2023-03-06T02:30:41.165Z,99.77
2023-03-06T02:33:07.917Z,99.72
2023-03-06T02:35:36.458Z,99.65
2023-03-06T02:38:09.543Z,99.97
2023-03-06T02:40:36.800Z,99.78
2023-03-06T02:43:04.277Z,99.83
2023-03-06T02:45:45.343Z,99.69
2023-03-06T02:48:18.851Z,99.78
2023-03-06T02:50:49.434Z,99.59
2023-03-06T02:53:20.210Z,99.71
2023-03-06T02:55:47.720Z,99.35
2023-03-06T02:58:15.628Z,99.41
2023-03-06T03:00:42.215Z,99.40
2023-03-06T03:03:14.810Z,99.25
2023-03-06T03:05:42.309Z,99.31
2023-03-06T03:08:09.065Z,99.27
2023-03-06T03:10:35.788Z,99.10
2023-03-06T03:13:02.542Z,98.95
2023-03-06T03:15:29.327Z,98.81
2023-03-06T03:17:55.942Z,98.65
2023-03-06T03:20:23.014Z,98.50
2023-03-06T03:22:55.795Z,98.52
2023-03-06T03:25:24.894Z,98.33
2023-03-06T03:27:58.085Z,98.45
2023-03-06T03:30:25.861Z,98.11
2023-03-06T03:32:58.302Z,98.19
2023-03-06T03:35:24.971Z,98.43
2023-03-06T03:37:52.732Z,97.99
2023-03-06T03:40:19.434Z,98.03
2023-03-06T03:42:46.182Z,97.98
2023-03-06T03:45:13.206Z,98.09
2023-03-06T03:47:49.138Z,97.77
2023-03-06T03:50:16.411Z,97.46
2023-03-06T03:52:43.072Z,97.83
2023-03-06T03:55:17.301Z,97.78
2023-03-06T03:57:55.923Z,97.74
2023-03-06T04:00:22.747Z,97.71
2023-03-06T04:02:50.633Z,97.45
2023-03-06T04:05:17.226Z,97.63
2023-03-06T04:07:44.256Z,97.62
2023-03-06T04:10:16.196Z,97.69
2023-03-06T04:12:49.811Z,97.40
2023-03-06T04:15:16.559Z,97.50
2023-03-06T04:17:44.149Z,97.40
2023-03-06T04:20:14.802Z,97.60
2023-03-06T04:22:47.453Z,96.81
2023-03-06T04:25:17.451Z,96.90
2023-03-06T04:27:50.358Z,96.41
2023-03-06T04:30:17.268Z,96.32
2023-03-06T04:32:53.971Z,95.87
2023-03-06T04:35:20.793Z,96.01
2023-03-06T04:37:47.714Z,95.77
2023-03-06T04:40:39.279Z,96.19
2023-03-06T04:43:08.033Z,95.63
2023-03-06T04:45:36.437Z,96.04
2023-03-06T04:48:13.189Z,95.95
2023-03-06T04:50:55.891Z,95.69
2023-03-06T04:53:26.962Z,95.92
2023-03-06T04:55:53.612Z,95.93
2023-03-06T04:58:26.700Z,96.11
2023-03-06T05:00:53.329Z,96.09
2023-03-06T05:03:20.378Z,95.70
2023-03-06T05:05:47.010Z,95.33
2023-03-06T05:08:19.329Z,95.83
2023-03-06T05:10:46.504Z,95.08
2023-03-06T05:13:16.568Z,95.50
2023-03-06T05:15:43.226Z,95.72
2023-03-06T05:18:17.032Z,95.30
2023-03-06T05:20:52.825Z,95.04
2023-03-06T05:23:20.463Z,95.21
2023-03-06T05:25:50.571Z,95.20
2023-03-06T05:28:24.466Z,95.50
2023-03-06T05:30:51.087Z,95.34
2023-03-06T05:33:20.673Z,95.08
2023-03-06T05:35:56.898Z,95.61
2023-03-06T05:38:40.208Z,95.91
2023-03-06T05:41:13.494Z,95.75
2023-03-06T05:43:43.844Z,95.79
2023-03-06T05:46:11.917Z,95.98
2023-03-06T05:48:39.813Z,95.80
2023-03-06T05:51:15.815Z,96.30
2023-03-06T05:53:46.095Z,96.49
2023-03-06T05:56:19.709Z,96.61
2023-03-06T05:58:49.873Z,96.55
2023-03-06T06:01:23.195Z,97.10
2023-03-06T06:03:51.048Z,96.99
2023-03-06T06:06:21.398Z,96.98
2023-03-06T06:08:58.194Z,96.90
2023-03-06T06:11:42.983Z,97.21
2023-03-06T06:14:09.766Z,97.15
2023-03-06T06:16:36.459Z,97.03
2023-03-06T06:19:03.373Z,97.73
2023-03-06T06:21:32.701Z,97.44
2023-03-06T06:23:59.479Z,97.16
2023-03-06T06:26:26.080Z,96.95
2023-03-06T06:28:52.788Z,96.77
2023-03-06T06:31:19.622Z,97.23
2023-03-06T06:34:00.600Z,97.08
2023-03-06T06:36:27.188Z,97.38
2023-03-06T06:38:53.901Z,97.70
2023-03-06T06:41:46.179Z,97.97
2023-03-06T06:44:17.989Z,98.05
2023-03-06T06:49:32.787Z,96.88
2023-03-06T06:51:59.760Z,97.25
2023-03-06T06:54:27.012Z,97.28
2023-03-06T06:56:54.094Z,97.57
2023-03-06T06:59:23.730Z,97.31
2023-03-06T07:01:52.179Z,97.66
2023-03-06T07:04:24.831Z,97.19
2023-03-06T07:06:51.595Z,97.18
2023-03-06T07:09:22.527Z,97.15
2023-03-06T07:11:50.009Z,97.66
2023-03-06T07:14:19.614Z,97.85
2023-03-06T07:16:46.264Z,97.86
2023-03-06T07:19:13.008Z,97.30
2023-03-06T07:21:39.723Z,98.04
2023-03-06T07:24:06.977Z,97.67
2023-03-06T07:26:34.838Z,96.86
2023-03-06T07:29:02.573Z,97.23
2023-03-06T07:31:32.449Z,97.53
2023-03-06T07:34:04.810Z,97.67
2023-03-06T07:36:40.538Z,97.85
2023-03-06T07:39:17.504Z,97.85
2023-03-06T07:41:44.537Z,97.83
2023-03-06T07:44:11.320Z,97.78
2023-03-06T07:46:38.272Z,97.29
2023-03-06T07:49:04.986Z,97.10
2023-03-06T07:51:37.191Z,97.13
2023-03-06T07:54:04.006Z,97.05
2023-03-06T07:56:32.732Z,96.15
2023-03-06T07:59:02.348Z,96.96
2023-03-06T08:01:29.378Z,97.67
2023-03-06T08:03:56.102Z,97.13
2023-03-06T08:06:26.146Z,96.77
2023-03-06T08:08:57.035Z,96.39
2023-03-06T08:11:26.431Z,96.43
2023-03-06T08:13:54.564Z,95.53
2023-03-06T08:16:23.114Z,95.42
2023-03-06T08:18:49.951Z,95.71
2023-03-06T08:21:19.335Z,95.79
2023-03-06T08:23:47.213Z,95.40
2023-03-06T08:26:19.845Z,96.23
2023-03-06T08:28:46.656Z,95.10
2023-03-06T08:31:20.940Z,96.32
2023-03-06T08:33:47.996Z,94.62
2023-03-06T08:36:14.748Z,93.95
2023-03-06T08:38:55.658Z,94.60
2023-03-06T08:41:22.664Z,94.04
2023-03-06T08:43:49.904Z,94.13
2023-03-06T08:46:18.831Z,93.33
2023-03-06T08:48:47.940Z,92.78
2023-03-06T08:51:15.240Z,92.39
2023-03-06T08:53:44.011Z,92.18
2023-03-06T08:56:24.254Z,92.81
2023-03-06T08:58:51.816Z,94.62
2023-03-06T09:01:21.856Z,94.71
2023-03-06T09:03:49.420Z,94.16
2023-03-06T09:06:17.676Z,94.60
2023-03-06T09:08:44.883Z,94.62
2023-03-06T09:11:17.594Z,95.44
2023-03-06T09:13:44.553Z,94.27
2023-03-06T09:16:12.019Z,94.86
2023-03-06T09:18:42.300Z,94.66
2023-03-06T09:21:10.047Z,94.57
2023-03-06T09:23:39.629Z,94.52
2023-03-06T09:26:07.515Z,94.28
2023-03-06T09:28:39.243Z,94.80
2023-03-06T09:31:19.673Z,95.07
2023-03-06T09:33:50.618Z,95.78
2023-03-06T09:36:22.623Z,96.13
2023-03-06T09:38:50.430Z,95.80
2023-03-06T09:41:39.649Z,95.44
2023-03-06T09:44:14.652Z,95.94
2023-03-06T09:47:02.930Z,96.39
2023-03-06T09:49:32.119Z,95.82
2023-03-06T09:52:17.722Z,94.52
2023-03-06T09:55:20.857Z,94.22
2023-03-06T09:58:07.110Z,94.65
2023-03-06T10:00:36.738Z,95.58
2023-03-06T10:03:24.884Z,95.96
2023-03-06T10:06:00.949Z,96.28
2023-03-06T10:08:35.564Z,95.01
2023-03-06T10:11:08.907Z,95.73
2023-03-06T10:13:43.869Z,94.03
2023-03-06T10:16:26.609Z,94.38
2023-03-06T10:18:55.585Z,94.52
2023-03-06T10:21:57.678Z,95.48
2023-03-06T10:24:40.984Z,95.39
2023-03-06T10:27:34.794Z,95.34
2023-03-06T10:30:46.299Z,94.88
2023-03-06T10:33:25.534Z,93.76
2023-03-06T10:35:57.106Z,94.43
2023-03-06T10:38:26.710Z,95.00
2023-03-06T10:41:11.698Z,93.85
2023-03-06T10:43:43.891Z,94.80
2023-03-06T10:46:30.843Z,95.36
2023-03-06T10:49:06.592Z,95.00
2023-03-06T10:51:36.683Z,94.18
2023-03-06T10:57:25.613Z,94.74
2023-03-06T11:00:26.641Z,94.47
2023-03-06T11:03:47.172Z,94.51
2023-03-06T11:09:37.188Z,93.72
2023-03-06T11:12:38.501Z,94.26
2023-03-06T11:15:37.203Z,92.65
2023-03-06T11:18:34.221Z,90.46
2023-03-06T11:21:10.745Z,91.82
2023-03-06T11:24:08.752Z,92.61
2023-03-06T11:26:51.370Z,91.63
2023-03-06T11:29:38.540Z,92.57
2023-03-06T11:32:52.690Z,93.17
2023-03-06T11:39:15.633Z,91.25
2023-03-06T11:42:26.085Z,88.57
2023-03-06T11:45:13.877Z,85.61
2023-03-06T11:48:14.885Z,87.82
2023-03-06T11:51:27.164Z,87.45
2023-03-06T11:54:03.339Z,85.56
2023-03-06T11:56:58.942Z,86.81
2023-03-06T11:59:45.278Z,86.85
2023-03-06T12:02:38.559Z,87.15
2023-03-06T12:05:25.469Z,87.75
2023-03-06T12:08:29.928Z,89.65
2023-03-06T12:14:00.941Z,85.45
2023-03-06T12:17:03.282Z,88.29
2023-03-06T12:20:00.944Z,87.71
2023-03-06T12:23:02.561Z,85.75
2023-03-06T12:25:46.756Z,85.31
2023-03-06T12:28:42.696Z,86.78
2023-03-06T12:31:29.345Z,84.89
2023-03-06T12:34:15.846Z,85.36
2023-03-06T12:37:25.355Z,86.38
2023-03-06T12:40:22.748Z,86.82
2023-03-06T12:43:15.070Z,86.72
2023-03-06T12:45:56.514Z,88.41
2023-03-06T12:48:33.045Z,86.37
2023-03-06T12:51:08.268Z,86.28
2023-03-06T12:53:44.502Z,85.38
2023-03-06T12:56:19.598Z,86.51
2023-03-06T12:59:18.662Z,85.63
2023-03-06T13:02:26.532Z,83.26
2023-03-06T13:05:36.726Z,83.59
2023-03-06T13:08:12.689Z,86.23
2023-03-06T13:10:48.709Z,82.68
2023-03-06T13:13:41.598Z,81.52
2023-03-06T13:16:33.800Z,82.38
2023-03-06T13:19:18.601Z,83.53
2023-03-06T13:22:19.457Z,81.62
2023-03-06T13:25:03.455Z,81.43
2023-03-06T13:27:48.621Z,81.06
2023-03-06T13:30:36.941Z,82.86
2023-03-06T13:33:38.300Z,80.11
2023-03-06T13:36:17.573Z,80.98
2023-03-06T13:38:44.377Z,83.21
2023-03-06T13:41:24.387Z,83.02
2023-03-06T13:43:55.905Z,77.88
2023-03-06T13:46:30.031Z,82.78
2023-03-06T13:49:05.812Z,80.66
2023-03-06T13:51:36.683Z,79.08
2023-03-06T13:54:21.813Z,80.38
2023-03-06T13:57:12.399Z,80.98
2023-03-06T14:00:08.336Z,80.13
2023-03-06T14:02:58.547Z,82.34
2023-03-06T14:05:37.360Z,80.89
2023-03-06T14:08:15.585Z,82.24
2023-03-06T14:10:47.300Z,82.19
2023-03-06T14:13:38.424Z,81.04
2023-03-06T14:16:20.288Z,81.46
2023-03-06T14:18:49.341Z,80.71
2023-03-06T14:21:26.598Z,81.73
2023-03-06T14:24:05.033Z,80.71
2023-03-06T14:26:33.887Z,80.54
2023-03-06T14:29:02.438Z,81.63
2023-03-06T14:31:37.619Z,83.83
2023-03-06T14:34:07.629Z,79.91
2023-03-06T14:36:49.277Z,81.42
2023-03-06T14:39:33.319Z,82.56
2023-03-06T14:42:27.132Z,80.96
2023-03-06T14:45:20.252Z,81.57
2023-03-06T14:47:52.439Z,80.90
2023-03-06T14:50:30.776Z,81.24
2023-03-06T14:53:01.828Z,80.03
2023-03-06T14:55:30.387Z,80.91
2023-03-06T14:58:03.085Z,83.67
2023-03-06T15:00:46.344Z,81.77
2023-03-06T15:03:19.493Z,82.57
2023-03-06T15:05:47.628Z,81.70
2023-03-06T15:08:19.436Z,80.83
2023-03-06T15:11:02.702Z,83.43
2023-03-06T15:13:30.708Z,82.05
2023-03-06T15:15:59.684Z,82.71
2023-03-06T15:18:55.155Z,81.88
2023-03-06T15:21:26.828Z,81.96
2023-03-06T15:23:55.833Z,82.50
2023-03-06T15:26:31.669Z,83.11
2023-03-06T15:29:25.014Z,81.88
2023-03-06T15:31:52.060Z,83.11
2023-03-06T15:34:24.973Z,82.88
2023-03-06T15:36:54.831Z,82.94
2023-03-06T15:39:41.322Z,82.92
2023-03-06T15:42:25.645Z,83.82
2023-03-06T15:45:03.651Z,82.34
2023-03-06T15:47:30.490Z,82.23
2023-03-06T15:49:57.584Z,82.73
2023-03-06T15:52:24.361Z,82.45
2023-03-06T15:54:56.828Z,82.94
2023-03-06T15:57:31.941Z,82.88
2023-03-06T16:00:00.925Z,82.85
2023-03-06T16:02:27.853Z,84.58
2023-03-06T16:04:54.915Z,82.48
2023-03-06T16:07:24.818Z,83.36
2023-03-06T16:09:53.389Z,83.17
2023-03-06T16:12:21.099Z,84.34
2023-03-06T16:14:48.955Z,85.53
2023-03-06T16:17:16.102Z,86.11
2023-03-06T16:19:51.693Z,86.31
2023-03-06T16:22:21.359Z,86.65
2023-03-06T16:24:51.095Z,86.96
2023-03-06T16:27:23.462Z,88.19
2023-03-06T16:29:52.381Z,88.58
2023-03-06T16:32:19.145Z,88.34
2023-03-06T16:34:48.952Z,88.48
2023-03-06T16:37:17.838Z,89.28
2023-03-06T16:39:44.626Z,89.40
2023-03-06T16:42:11.563Z,89.84
2023-03-06T16:44:38.245Z,89.98
2023-03-06T16:47:12.868Z,90.64
2023-03-06T16:49:39.657Z,90.63
2023-03-06T16:52:11.406Z,91.21
2023-03-06T16:54:38.248Z,90.79
2023-03-06T16:57:05.116Z,91.01
2023-03-06T16:59:32.041Z,91.89
2023-03-06T17:01:58.792Z,91.72
2023-03-06T17:04:25.624Z,92.18
2023-03-06T17:06:53.335Z,92.00
2023-03-06T17:09:20.076Z,92.26
2023-03-06T17:11:46.981Z,92.70
2023-03-06T17:14:13.834Z,92.83
2023-03-06T17:16:46.567Z,92.74
2023-03-06T17:19:16.656Z,93.41
2023-03-06T17:21:44.498Z,93.19
2023-03-06T17:24:11.019Z,94.03
2023-03-06T17:26:37.949Z,93.89
2023-03-06T17:29:09.484Z,93.85
2023-03-06T17:31:40.111Z,94.51
2023-03-06T17:34:08.274Z,94.87
2023-03-06T17:36:35.306Z,95.57
2023-03-06T17:39:03.381Z,95.98
2023-03-06T17:41:30.326Z,95.85
2023-03-06T17:44:02.082Z,96.22
2023-03-06T17:46:32.320Z,96.02
2023-03-06T17:48:59.204Z,96.46
2023-03-06T17:51:26.318Z,96.50
2023-03-06T17:53:59.327Z,96.55
2023-03-06T17:56:27.310Z,96.63
2023-03-06T17:58:53.907Z,96.71
2023-03-06T18:01:33.020Z,96.65
2023-03-06T18:04:03.007Z,97.02
2023-03-06T18:06:39.509Z,96.88
2023-03-06T18:09:06.806Z,96.87
2023-03-06T18:11:33.951Z,96.85
2023-03-06T18:14:00.914Z,96.64
2023-03-06T18:16:27.734Z,96.46
2023-03-06T18:18:57.272Z,96.50
2023-03-06T18:21:24.886Z,96.32
2023-03-06T18:23:54.333Z,96.56
2023-03-06T18:26:26.796Z,96.63
2023-03-06T18:28:56.485Z,96.97
2023-03-06T18:31:26.062Z,96.84
2023-03-06T18:33:55.380Z,96.80
2023-03-06T18:36:28.087Z,97.17
2023-03-06T18:38:58.759Z,97.11
2023-03-06T18:41:26.796Z,97.45
2023-03-06T18:43:55.979Z,97.25
2023-03-06T18:46:24.323Z,97.08
2023-03-06T18:48:55.155Z,96.90
2023-03-06T18:51:22.187Z,96.88
2023-03-06T18:53:49.232Z,96.93
2023-03-06T18:56:19.481Z,97.00
2023-03-06T18:58:49.306Z,96.99
2023-03-06T19:01:16.669Z,96.93
2023-03-06T19:03:43.780Z,96.71
2023-03-06T19:06:17.240Z,97.48
2023-03-06T19:08:49.353Z,97.57
2023-03-06T19:11:25.421Z,97.18
2023-03-06T19:13:52.463Z,97.53
2023-03-06T19:16:31.198Z,97.44
2023-03-06T19:19:07.109Z,97.30
2023-03-06T19:21:34.012Z,97.28
2023-03-06T19:24:02.544Z,97.58
2023-03-06T19:26:29.756Z,97.04
2023-03-06T19:28:56.878Z,97.38
2023-03-06T19:31:27.256Z,97.33
2023-03-06T19:33:57.809Z,97.46
2023-03-06T19:36:28.815Z,97.92
2023-03-06T19:38:57.509Z,97.72
2023-03-06T19:41:26.839Z,97.76
2023-03-06T19:43:56.706Z,97.79
2023-03-06T19:46:26.701Z,97.92
2023-03-06T19:49:00.603Z,97.62
2023-03-06T19:51:28.406Z,97.76
2023-03-06T19:53:57.061Z,97.54
2023-03-06T19:56:27.373Z,97.71
2023-03-06T19:59:03.590Z,97.77
2023-03-06T20:01:31.085Z,97.78
2023-03-06T20:03:59.547Z,97.84
2023-03-06T20:06:35.969Z,98.11
2023-03-06T20:09:06.673Z,97.94
2023-03-06T20:11:36.791Z,97.99
2023-03-06T20:14:05.885Z,97.93
2023-03-06T20:16:33.965Z,98.00
2023-03-06T20:19:01.863Z,98.08
2023-03-06T20:21:33.362Z,97.84
2023-03-06T20:24:00.089Z,97.97
2023-03-06T20:26:29.085Z,97.78
2023-03-06T20:28:59.427Z,97.86
2023-03-06T20:31:30.404Z,98.13
2023-03-06T20:34:01.109Z,98.04
2023-03-06T20:36:37.037Z,98.22
2023-03-06T20:39:12.171Z,98.00
2023-03-06T20:41:39.853Z,98.11
2023-03-06T20:44:10.680Z,98.20
2023-03-06T20:46:55.454Z,98.03
2023-03-06T20:49:22.435Z,98.03
2023-03-06T20:51:56.854Z,97.99
2023-03-06T20:54:25.763Z,98.32
2023-03-06T20:56:55.074Z,98.04
2023-03-06T20:59:22.600Z,98.22
2023-03-06T21:01:52.652Z,98.17
2023-03-06T21:04:20.589Z,98.02
2023-03-06T21:06:47.779Z,98.06
2023-03-06T21:09:17.872Z,98.13
2023-03-06T21:11:50.920Z,98.06
2023-03-06T21:14:20.285Z,98.36
2023-03-06T21:16:47.577Z,98.19
2023-03-06T21:19:21.855Z,98.16
2023-03-06T21:21:48.824Z,98.11
2023-03-06T21:24:23.329Z,98.17
2023-03-06T21:26:52.859Z,98.34
2023-03-06T21:29:20.842Z,98.34
2023-03-06T21:31:47.581Z,98.30
2023-03-06T21:34:14.550Z,98.40
2023-03-06T21:36:45.522Z,98.15
2023-03-06T21:39:12.778Z,98.17
2023-03-06T21:41:40.818Z,98.64
2023-03-06T21:44:07.862Z,98.60
2023-03-06T21:46:35.626Z,98.54
2023-03-06T21:49:04.643Z,98.39
2023-03-06T21:51:37.026Z,98.46
2023-03-06T21:54:04.344Z,98.35
2023-03-06T21:56:33.215Z,98.41
2023-03-06T21:59:03.343Z,98.55
2023-03-06T22:01:31.069Z,98.56
2023-03-06T22:04:02.310Z,98.24
2023-03-06T22:06:31.317Z,98.43
2023-03-06T22:08:59.878Z,98.46
2023-03-06T22:11:31.730Z,98.59
2023-03-06T22:13:59.218Z,98.25
2023-03-06T22:16:26.218Z,98.13
2023-03-06T22:18:56.397Z,98.25
2023-03-06T22:21:26.753Z,98.26
2023-03-06T22:23:59.641Z,98.25
2023-03-06T22:26:39.877Z,98.17
2023-03-06T22:29:07.053Z,97.85
2023-03-06T22:31:33.876Z,97.68
2023-03-06T22:34:01.436Z,97.79
2023-03-06T22:36:33.097Z,98.04
2023-03-06T22:39:01.861Z,98.06
2023-03-06T22:41:29.205Z,97.79
2023-03-06T22:43:57.878Z,98.15
2023-03-06T22:46:25.449Z,98.11
2023-03-06T22:48:59.848Z,97.92
2023-03-06T22:51:27.495Z,97.91
2023-03-06T22:54:03.389Z,98.09
2023-03-06T22:56:30.717Z,98.02
2023-03-06T22:58:58.573Z,98.13
2023-03-06T23:01:34.488Z,98.10
2023-03-06T23:04:03.217Z,98.06
2023-03-06T23:06:36.620Z,97.87
2023-03-06T23:09:05.980Z,97.94
2023-03-06T23:11:35.939Z,98.01
2023-03-06T23:14:03.188Z,97.79
2023-03-06T23:16:34.096Z,97.84
2023-03-06T23:19:02.010Z,97.80
2023-03-06T23:21:29.195Z,97.69
2023-03-06T23:24:03.458Z,97.77
2023-03-06T23:26:39.031Z,97.93
2023-03-06T23:29:05.691Z,98.04
2023-03-06T23:31:34.962Z,97.79
2023-03-06T23:34:03.968Z,98.37
2023-03-06T23:36:34.101Z,98.63
2023-03-06T23:39:05.473Z,98.69
2023-03-06T23:41:35.853Z,98.91
2023-03-06T23:44:12.187Z,98.73
2023-03-06T23:46:39.562Z,98.87
2023-03-06T23:49:08.064Z,99.17
2023-03-06T23:51:38.617Z,99.20
2023-03-06T23:54:12.547Z,99.40
2023-03-06T23:56:39.704Z,99.28
2023-03-06T23:59:15.546Z,99.22
